sensor_id;sensor_type;location;lat;lon;timestamp;pressure;altitude;pressure_sealevel;temperature;humidity
68889;BME280;55930;47.412;8.790;2022-08-01T00:00:23;94827.19;;;17.60;79.99
68889;BME280;55930;47.412;8.790;2022-08-01T00:02:49;94825.22;;;17.66;80.93
68889;BME280;55930;47.412;8.790;2022-08-01T00:05:14;94817.91;;;17.67;81.10
68889;BME280;55930;47.412;8.790;2022-08-01T00:07:42;94826.97;;;17.58;81.12
68889;BME280;55930;47.412;8.790;2022-08-01T00:10:11;94820.66;;;17.50;82.61
68889;BME280;55930;47.412;8.790;2022-08-01T00:12:39;94825.53;;;17.51;81.70
68889;BME280;55930;47.412;8.790;2022-08-01T00:15:08;94821.09;;;17.65;80.36
68889;BME280;55930;47.412;8.790;2022-08-01T00:17:34;94829.72;;;17.47;82.01
68889;BME280;55930;47.412;8.790;2022-08-01T00:20:00;94829.44;;;17.50;81.85
68889;BME280;55930;47.412;8.790;2022-08-01T00:22:27;94832.13;;;17.50;81.47
68889;BME280;55930;47.412;8.790;2022-08-01T00:24:53;94828.91;;;17.57;80.93
68889;BME280;55930;47.412;8.790;2022-08-01T00:27:18;94817.78;;;17.48;81.84
68889;BME280;55930;47.412;8.790;2022-08-01T00:29:43;94831.59;;;17.57;81.70
68889;BME280;55930;47.412;8.790;2022-08-01T00:32:09;94832.16;;;17.45;82.93
68889;BME280;55930;47.412;8.790;2022-08-01T00:34:34;94827.53;;;17.45;83.71
68889;BME280;55930;47.412;8.790;2022-08-01T00:37:00;94823.88;;;17.43;83.45
68889;BME280;55930;47.412;8.790;2022-08-01T00:39:25;94829.00;;;17.41;83.51
68889;BME280;55930;47.412;8.790;2022-08-01T00:41:51;94825.59;;;17.40;83.22
68889;BME280;55930;47.412;8.790;2022-08-01T00:44:16;94824.63;;;17.43;82.82
68889;BME280;55930;47.412;8.790;2022-08-01T00:46:44;94824.16;;;17.39;82.81
68889;BME280;55930;47.412;8.790;2022-08-01T00:49:09;94820.50;;;17.37;83.34
68889;BME280;55930;47.412;8.790;2022-08-01T00:51:35;94819.78;;;17.36;83.67
68889;BME280;55930;47.412;8.790;2022-08-01T00:54:00;94827.56;;;17.40;83.00
68889;BME280;55930;47.412;8.790;2022-08-01T00:56:26;94821.19;;;17.43;82.52
68889;BME280;55930;47.412;8.790;2022-08-01T00:58:53;94827.06;;;17.41;84.38
68889;BME280;55930;47.412;8.790;2022-08-01T01:01:19;94826.81;;;17.45;84.08
68889;BME280;55930;47.412;8.790;2022-08-01T01:03:47;94834.28;;;17.57;82.72
68889;BME280;55930;47.412;8.790;2022-08-01T01:06:31;94827.69;;;17.64;82.59
68889;BME280;55930;47.412;8.790;2022-08-01T01:14:38;94824.16;;;17.80;80.93
68889;BME280;55930;47.412;8.790;2022-08-01T01:17:12;94829.94;;;17.90;82.60
68889;BME280;55930;47.412;8.790;2022-08-01T01:19:45;94823.78;;;17.65;81.41
68889;BME280;55930;47.412;8.790;2022-08-01T01:22:36;94832.56;;;17.60;82.27
68889;BME280;55930;47.412;8.790;2022-08-01T01:25:09;94838.88;;;17.68;83.71
68889;BME280;55930;47.412;8.790;2022-08-01T01:27:45;94837.94;;;17.60;84.50
68889;BME280;55930;47.412;8.790;2022-08-01T01:30:13;94833.56;;;17.57;84.18
68889;BME280;55930;47.412;8.790;2022-08-01T01:32:42;94840.16;;;17.62;83.81
68889;BME280;55930;47.412;8.790;2022-08-01T01:35:29;94835.25;;;17.60;83.95
68889;BME280;55930;47.412;8.790;2022-08-01T01:38:29;94837.97;;;17.54;81.67
68889;BME280;55930;47.412;8.790;2022-08-01T01:40:57;94837.28;;;17.43;82.98
68889;BME280;55930;47.412;8.790;2022-08-01T01:43:25;94834.91;;;17.39;83.33
68889;BME280;55930;47.412;8.790;2022-08-01T01:45:52;94834.94;;;17.28;84.08
68889;BME280;55930;47.412;8.790;2022-08-01T01:48:20;94837.66;;;17.17;85.13
68889;BME280;55930;47.412;8.790;2022-08-01T01:50:47;94832.56;;;17.13;86.36
68889;BME280;55930;47.412;8.790;2022-08-01T01:53:16;94827.94;;;17.14;86.59
68889;BME280;55930;47.412;8.790;2022-08-01T01:55:45;94829.41;;;17.09;87.19
68889;BME280;55930;47.412;8.790;2022-08-01T01:58:13;94827.50;;;17.04;86.33
68889;BME280;55930;47.412;8.790;2022-08-01T02:00:40;94827.25;;;17.02;86.20
68889;BME280;55930;47.412;8.790;2022-08-01T02:03:09;94822.66;;;16.97;86.34
68889;BME280;55930;47.412;8.790;2022-08-01T02:05:39;94826.56;;;16.91;87.17
68889;BME280;55930;47.412;8.790;2022-08-01T02:08:05;94827.31;;;16.91;87.17
68889;BME280;55930;47.412;8.790;2022-08-01T02:10:38;94828.75;;;16.98;85.54
68889;BME280;55930;47.412;8.790;2022-08-01T02:13:05;94831.69;;;16.89;86.41
68889;BME280;55930;47.412;8.790;2022-08-01T02:15:33;94826.56;;;16.85;86.64
68889;BME280;55930;47.412;8.790;2022-08-01T02:18:02;94832.69;;;16.80;86.88
68889;BME280;55930;47.412;8.790;2022-08-01T02:20:29;94838.53;;;16.78;87.37
68889;BME280;55930;47.412;8.790;2022-08-01T02:23:00;94830.97;;;16.88;85.93
68889;BME280;55930;47.412;8.790;2022-08-01T02:25:33;94833.41;;;16.92;85.50
68889;BME280;55930;47.412;8.790;2022-08-01T02:28:05;94830.75;;;16.80;85.96
68889;BME280;55930;47.412;8.790;2022-08-01T02:30:36;94831.47;;;16.81;85.96
68889;BME280;55930;47.412;8.790;2022-08-01T02:33:33;94832.97;;;16.71;87.10
68889;BME280;55930;47.412;8.790;2022-08-01T02:36:02;94836.84;;;16.81;85.94
68889;BME280;55930;47.412;8.790;2022-08-01T02:38:32;94832.97;;;16.71;86.66
68889;BME280;55930;47.412;8.790;2022-08-01T02:41:04;94833.44;;;16.69;86.45
68889;BME280;55930;47.412;8.790;2022-08-01T02:43:32;94842.47;;;16.66;86.66
68889;BME280;55930;47.412;8.790;2022-08-01T02:46:01;94836.13;;;16.69;86.18
68889;BME280;55930;47.412;8.790;2022-08-01T02:48:30;94836.34;;;16.77;86.65
68889;BME280;55930;47.412;8.790;2022-08-01T02:51:00;94835.88;;;16.73;87.42
68889;BME280;55930;47.412;8.790;2022-08-01T02:53:27;94834.41;;;16.77;86.87
68889;BME280;55930;47.412;8.790;2022-08-01T02:55:56;94831.25;;;16.73;87.76
68889;BME280;55930;47.412;8.790;2022-08-01T02:58:23;94837.28;;;16.85;86.52
68889;BME280;55930;47.412;8.790;2022-08-01T03:00:50;94832.66;;;16.86;85.70
68889;BME280;55930;47.412;8.790;2022-08-01T03:03:16;94835.13;;;16.83;85.36
68889;BME280;55930;47.412;8.790;2022-08-01T03:05:43;94834.63;;;16.91;84.98
68889;BME280;55930;47.412;8.790;2022-08-01T03:08:10;94833.63;;;16.88;85.37
68889;BME280;55930;47.412;8.790;2022-08-01T03:10:41;94834.63;;;16.79;86.57
68889;BME280;55930;47.412;8.790;2022-08-01T03:13:09;94840.72;;;16.80;86.44
68889;BME280;55930;47.412;8.790;2022-08-01T03:15:39;94836.63;;;16.73;86.54
68889;BME280;55930;47.412;8.790;2022-08-01T03:18:07;94832.97;;;16.71;86.72
68889;BME280;55930;47.412;8.790;2022-08-01T03:20:33;94836.13;;;16.69;86.98
68889;BME280;55930;47.412;8.790;2022-08-01T03:23:01;94829.56;;;16.76;86.38
68889;BME280;55930;47.412;8.790;2022-08-01T03:25:31;94832.25;;;16.65;87.22
68889;BME280;55930;47.412;8.790;2022-08-01T03:27:59;94834.19;;;16.64;86.37
68889;BME280;55930;47.412;8.790;2022-08-01T03:30:27;94838.81;;;16.58;86.91
68889;BME280;55930;47.412;8.790;2022-08-01T03:32:53;94834.44;;;16.61;86.31
68889;BME280;55930;47.412;8.790;2022-08-01T03:35:22;94842.47;;;16.66;86.91
68889;BME280;55930;47.412;8.790;2022-08-01T03:37:51;94834.44;;;16.55;86.49
68889;BME280;55930;47.412;8.790;2022-08-01T03:40:23;94840.53;;;16.61;87.07
68889;BME280;55930;47.412;8.790;2022-08-01T03:42:53;94838.81;;;16.53;87.95
68889;BME280;55930;47.412;8.790;2022-08-01T03:45:22;94839.53;;;16.53;87.87
68889;BME280;55930;47.412;8.790;2022-08-01T03:47:52;94844.66;;;16.57;89.05
68889;BME280;55930;47.412;8.790;2022-08-01T03:50:20;94839.53;;;16.53;88.15
68889;BME280;55930;47.412;8.790;2022-08-01T03:52:49;94839.53;;;16.53;88.25
68889;BME280;55930;47.412;8.790;2022-08-01T03:55:20;94843.69;;;16.60;87.33
68889;BME280;55930;47.412;8.790;2022-08-01T03:57:47;94836.66;;;16.51;87.46
68889;BME280;55930;47.412;8.790;2022-08-01T04:00:13;94829.56;;;16.54;87.58
68889;BME280;55930;47.412;8.790;2022-08-01T04:02:47;94832.25;;;16.48;88.36
68889;BME280;55930;47.412;8.790;2022-08-01T04:05:13;94837.59;;;16.48;88.76
68889;BME280;55930;47.412;8.790;2022-08-01T04:07:39;94835.91;;;16.51;88.55
68889;BME280;55930;47.412;8.790;2022-08-01T04:10:05;94834.19;;;16.53;88.32
68889;BME280;55930;47.412;8.790;2022-08-01T04:12:31;94839.31;;;16.51;88.88
68889;BME280;55930;47.412;8.790;2022-08-01T04:14:57;94837.09;;;16.55;87.95
68889;BME280;55930;47.412;8.790;2022-08-01T04:17:26;94838.81;;;16.58;87.87
68889;BME280;55930;47.412;8.790;2022-08-01T04:19:52;94832.25;;;16.59;87.69
68889;BME280;55930;47.412;8.790;2022-08-01T04:22:17;94842.22;;;16.70;87.26
68889;BME280;55930;47.412;8.790;2022-08-01T04:24:46;94845.38;;;16.68;86.82
68889;BME280;55930;47.412;8.790;2022-08-01T04:27:18;94846.34;;;16.76;87.34
68889;BME280;55930;47.412;8.790;2022-08-01T04:29:46;94847.78;;;16.77;86.52
68889;BME280;55930;47.412;8.790;2022-08-01T04:32:14;94851.44;;;16.80;86.23
68889;BME280;55930;47.412;8.790;2022-08-01T04:34:41;94851.97;;;16.56;86.50
68889;BME280;55930;47.412;8.790;2022-08-01T04:37:12;94857.81;;;16.66;86.29
68889;BME280;55930;47.412;8.790;2022-08-01T04:39:41;94861.69;;;16.76;85.11
68889;BME280;55930;47.412;8.790;2022-08-01T04:42:09;94858.78;;;16.74;85.17
68889;BME280;55930;47.412;8.790;2022-08-01T04:44:36;94854.59;;;16.90;84.66
68889;BME280;55930;47.412;8.790;2022-08-01T04:47:03;94867.22;;;17.00;85.23
68889;BME280;55930;47.412;8.790;2022-08-01T04:49:32;94866.94;;;17.15;85.18
68889;BME280;55930;47.412;8.790;2022-08-01T04:52:00;94866.59;;;17.35;84.82
68889;BME280;55930;47.412;8.790;2022-08-01T04:54:26;94875.00;;;17.56;84.78
68889;BME280;55930;47.412;8.790;2022-08-01T04:56:53;94870.31;;;17.73;84.18
68889;BME280;55930;47.412;8.790;2022-08-01T04:59:21;94870.50;;;17.86;81.65
68889;BME280;55930;47.412;8.790;2022-08-01T05:04:33;94876.91;;;17.72;82.22
68889;BME280;55930;47.412;8.790;2022-08-01T05:06:59;94872.34;;;17.62;82.75
68889;BME280;55930;47.412;8.790;2022-08-01T05:09:25;94884.69;;;17.76;81.40
68889;BME280;55930;47.412;8.790;2022-08-01T05:11:50;94876.06;;;17.94;81.06
68889;BME280;55930;47.412;8.790;2022-08-01T05:14:15;94884.44;;;18.15;80.37
68889;BME280;55930;47.412;8.790;2022-08-01T05:16:41;94872.47;;;18.16;76.75
68889;BME280;55930;47.412;8.790;2022-08-01T05:19:07;94882.44;;;18.21;77.34
68889;BME280;55930;47.412;8.790;2022-08-01T05:21:33;94884.13;;;18.24;75.93
68889;BME280;55930;47.412;8.790;2022-08-01T05:23:59;94884.72;;;18.41;74.71
68889;BME280;55930;47.412;8.790;2022-08-01T05:26:24;94881.72;;;18.50;75.45
68889;BME280;55930;47.412;8.790;2022-08-01T05:28:50;94886.63;;;18.76;73.73
68889;BME280;55930;47.412;8.790;2022-08-01T05:31:15;94878.94;;;18.86;75.29
68889;BME280;55930;47.412;8.790;2022-08-01T05:33:40;94881.06;;;18.93;76.88
68889;BME280;55930;47.412;8.790;2022-08-01T05:36:06;94874.84;;;19.03;79.01
68889;BME280;55930;47.412;8.790;2022-08-01T05:38:31;94880.88;;;19.09;80.03
68889;BME280;55930;47.412;8.790;2022-08-01T05:40:56;94877.81;;;19.00;79.18
68889;BME280;55930;47.412;8.790;2022-08-01T05:43:22;94877.47;;;19.09;79.24
68889;BME280;55930;47.412;8.790;2022-08-01T05:45:47;94875.63;;;19.23;77.87
68889;BME280;55930;47.412;8.790;2022-08-01T05:48:13;94880.34;;;19.35;77.61
68889;BME280;55930;47.412;8.790;2022-08-01T05:50:38;94877.53;;;19.46;72.65
68889;BME280;55930;47.412;8.790;2022-08-01T05:53:04;94873.88;;;19.44;77.99
68889;BME280;55930;47.412;8.790;2022-08-01T05:55:29;94884.00;;;19.57;77.64
68889;BME280;55930;47.412;8.790;2022-08-01T05:57:55;94874.75;;;19.33;76.92
68889;BME280;55930;47.412;8.790;2022-08-01T06:00:20;94885.06;;;19.54;76.59
68889;BME280;55930;47.412;8.790;2022-08-01T06:02:46;94884.69;;;19.63;76.27
68889;BME280;55930;47.412;8.790;2022-08-01T06:05:14;94878.25;;;20.03;75.00
68889;BME280;55930;47.412;8.790;2022-08-01T06:07:39;94880.59;;;20.25;72.86
68889;BME280;55930;47.412;8.790;2022-08-01T06:10:06;94881.28;;;20.45;71.38
68889;BME280;55930;47.412;8.790;2022-08-01T06:12:33;94882.06;;;20.72;70.09
68889;BME280;55930;47.412;8.790;2022-08-01T06:15:01;94874.63;;;21.17;68.58
68889;BME280;55930;47.412;8.790;2022-08-01T06:17:29;94886.84;;;21.31;67.88
68889;BME280;55930;47.412;8.790;2022-08-01T06:19:57;94882.66;;;21.57;65.49
68889;BME280;55930;47.412;8.790;2022-08-01T06:22:22;94880.28;;;21.40;67.42
68889;BME280;55930;47.412;8.790;2022-08-01T06:24:48;94877.31;;;21.30;66.93
68889;BME280;55930;47.412;8.790;2022-08-01T06:27:13;94876.59;;;21.77;67.16
68889;BME280;55930;47.412;8.790;2022-08-01T06:29:38;94884.72;;;21.64;65.56
68889;BME280;55930;47.412;8.790;2022-08-01T06:32:04;94881.28;;;22.31;61.03
68889;BME280;55930;47.412;8.790;2022-08-01T06:34:32;94881.19;;;22.65;58.67
68889;BME280;55930;47.412;8.790;2022-08-01T06:36:57;94882.75;;;22.61;55.77
68889;BME280;55930;47.412;8.790;2022-08-01T06:39:22;94888.91;;;23.10;56.99
68889;BME280;55930;47.412;8.790;2022-08-01T06:41:48;94882.38;;;23.06;54.52
68889;BME280;55930;47.412;8.790;2022-08-01T06:44:13;94873.69;;;23.36;53.64
68889;BME280;55930;47.412;8.790;2022-08-01T06:46:39;94876.16;;;23.26;52.18
68889;BME280;55930;47.412;8.790;2022-08-01T06:49:06;94872.22;;;23.71;53.98
68889;BME280;55930;47.412;8.790;2022-08-01T06:51:32;94873.00;;;23.94;50.95
68889;BME280;55930;47.412;8.790;2022-08-01T06:53:57;94876.69;;;23.53;51.71
68889;BME280;55930;47.412;8.790;2022-08-01T06:56:23;94876.53;;;23.66;50.50
68889;BME280;55930;47.412;8.790;2022-08-01T06:58:49;94872.94;;;23.71;50.42
68889;BME280;55930;47.412;8.790;2022-08-01T07:01:15;94873.06;;;24.17;49.55
68889;BME280;55930;47.412;8.790;2022-08-01T07:03:40;94870.91;;;24.76;47.48
68889;BME280;55930;47.412;8.790;2022-08-01T07:06:06;94865.56;;;25.24;48.22
68889;BME280;55930;47.412;8.790;2022-08-01T07:08:31;94860.53;;;25.20;45.43
68889;BME280;55930;47.412;8.790;2022-08-01T07:10:57;94872.09;;;25.28;48.48
68889;BME280;55930;47.412;8.790;2022-08-01T07:13:26;94865.06;;;25.17;47.04
68889;BME280;55930;47.412;8.790;2022-08-01T07:15:51;94862.25;;;24.47;49.05
68889;BME280;55930;47.412;8.790;2022-08-01T07:18:20;94859.63;;;24.03;49.41
68889;BME280;55930;47.412;8.790;2022-08-01T07:20:48;94860.38;;;25.10;48.54
68889;BME280;55930;47.412;8.790;2022-08-01T07:23:14;94865.84;;;25.50;47.35
68889;BME280;55930;47.412;8.790;2022-08-01T07:25:40;94858.53;;;25.76;45.54
68889;BME280;55930;47.412;8.790;2022-08-01T07:28:05;94860.88;;;25.72;44.33
68889;BME280;55930;47.412;8.790;2022-08-01T07:30:31;94868.84;;;25.77;44.84
68889;BME280;55930;47.412;8.790;2022-08-01T07:32:56;94855.13;;;26.25;44.96
68889;BME280;55930;47.412;8.790;2022-08-01T07:35:22;94860.75;;;26.27;44.08
68889;BME280;55930;47.412;8.790;2022-08-01T07:37:47;94856.66;;;26.11;43.69
68889;BME280;55930;47.412;8.790;2022-08-01T07:40:17;94854.59;;;26.93;45.21
68889;BME280;55930;47.412;8.790;2022-08-01T07:42:42;94849.31;;;27.13;43.22
68889;BME280;55930;47.412;8.790;2022-08-01T07:45:12;94854.06;;;27.73;41.47
68889;BME280;55930;47.412;8.790;2022-08-01T07:47:40;94854.44;;;27.09;42.32
68889;BME280;55930;47.412;8.790;2022-08-01T07:50:09;94851.88;;;27.45;42.35
68889;BME280;55930;47.412;8.790;2022-08-01T07:52:35;94848.97;;;27.60;41.98
68889;BME280;55930;47.412;8.790;2022-08-01T07:55:00;94844.22;;;26.75;42.07
68889;BME280;55930;47.412;8.790;2022-08-01T07:57:25;94854.19;;;27.31;42.21
68889;BME280;55930;47.412;8.790;2022-08-01T07:59:51;94851.59;;;28.22;39.92
68889;BME280;55930;47.412;8.790;2022-08-01T08:02:16;94847.28;;;28.18;42.02
68889;BME280;55930;47.412;8.790;2022-08-01T08:04:44;94849.34;;;28.01;40.28
68889;BME280;55930;47.412;8.790;2022-08-01T08:07:10;94844.78;;;28.13;40.75
68889;BME280;55930;47.412;8.790;2022-08-01T08:09:35;94839.84;;;28.02;43.37
68889;BME280;55930;47.412;8.790;2022-08-01T08:12:01;94838.72;;;28.78;39.44
68889;BME280;55930;47.412;8.790;2022-08-01T08:14:26;94836.41;;;28.84;37.94
68889;BME280;55930;47.412;8.790;2022-08-01T08:16:51;94831.81;;;29.25;39.37
68889;BME280;55930;47.412;8.790;2022-08-01T08:19:17;94831.25;;;28.98;38.40
68889;BME280;55930;47.412;8.790;2022-08-01T08:21:42;94837.59;;;29.39;36.59
68889;BME280;55930;47.412;8.790;2022-08-01T08:24:08;94827.16;;;31.09;33.92
68889;BME280;55930;47.412;8.790;2022-08-01T08:26:47;94829.31;;;31.76;32.49
68889;BME280;55930;47.412;8.790;2022-08-01T08:29:13;94836.06;;;31.64;33.85
68889;BME280;55930;47.412;8.790;2022-08-01T08:31:39;94836.47;;;31.81;33.07
68889;BME280;55930;47.412;8.790;2022-08-01T08:34:04;94829.09;;;32.65;31.43
68889;BME280;55930;47.412;8.790;2022-08-01T08:36:30;94827.22;;;32.56;30.97
68889;BME280;55930;47.412;8.790;2022-08-01T08:38:55;94829.19;;;33.90;29.47
68889;BME280;55930;47.412;8.790;2022-08-01T08:41:22;94828.16;;;31.91;33.13
68889;BME280;55930;47.412;8.790;2022-08-01T08:43:48;94831.84;;;31.96;34.24
68889;BME280;55930;47.412;8.790;2022-08-01T08:46:14;94827.00;;;31.28;31.45
68889;BME280;55930;47.412;8.790;2022-08-01T08:48:42;94820.34;;;30.36;33.34
68889;BME280;55930;47.412;8.790;2022-08-01T08:51:10;94822.13;;;29.82;35.63
68889;BME280;55930;47.412;8.790;2022-08-01T08:53:38;94813.75;;;30.61;33.26
68889;BME280;55930;47.412;8.790;2022-08-01T08:56:06;94816.16;;;30.66;33.51
68889;BME280;55930;47.412;8.790;2022-08-01T08:58:33;94821.47;;;30.12;33.53
68889;BME280;55930;47.412;8.790;2022-08-01T09:01:05;94826.50;;;32.56;30.54
68889;BME280;55930;47.412;8.790;2022-08-01T09:03:32;94820.03;;;34.13;28.37
68889;BME280;55930;47.412;8.790;2022-08-01T09:05:57;94826.16;;;33.47;30.13
68889;BME280;55930;47.412;8.790;2022-08-01T09:08:22;94812.50;;;34.68;27.31
68889;BME280;55930;47.412;8.790;2022-08-01T09:10:48;94823.44;;;35.37;27.37
68889;BME280;55930;47.412;8.790;2022-08-01T09:13:14;94827.31;;;34.61;28.82
68889;BME280;55930;47.412;8.790;2022-08-01T09:15:45;94829.88;;;34.30;29.61
68889;BME280;55930;47.412;8.790;2022-08-01T09:18:33;94825.28;;;34.34;27.71
68889;BME280;55930;47.412;8.790;2022-08-01T09:23:39;94826.59;;;36.05;26.81
68889;BME280;55930;47.412;8.790;2022-08-01T09:26:14;94823.16;;;35.30;27.19
68889;BME280;55930;47.412;8.790;2022-08-01T09:28:44;94828.56;;;34.72;26.91
68889;BME280;55930;47.412;8.790;2022-08-01T09:31:15;94826.88;;;34.12;27.36
68889;BME280;55930;47.412;8.790;2022-08-01T09:36:16;94820.78;;;36.78;24.84
68889;BME280;55930;47.412;8.790;2022-08-01T09:38:42;94828.16;;;37.07;25.38
68889;BME280;55930;47.412;8.790;2022-08-01T09:41:08;94821.19;;;36.39;25.51
68889;BME280;55930;47.412;8.790;2022-08-01T09:43:34;94819.41;;;35.69;26.44
68889;BME280;55930;47.412;8.790;2022-08-01T09:46:04;94814.31;;;34.09;28.28
68889;BME280;55930;47.412;8.790;2022-08-01T09:48:31;94809.19;;;35.26;26.26
68889;BME280;55930;47.412;8.790;2022-08-01T09:50:58;94806.84;;;35.66;26.26
68889;BME280;55930;47.412;8.790;2022-08-01T09:53:24;94813.94;;;35.55;25.72
68889;BME280;55930;47.412;8.790;2022-08-01T09:55:50;94813.97;;;35.12;25.79
68889;BME280;55930;47.412;8.790;2022-08-01T09:58:17;94808.84;;;36.11;25.94
68889;BME280;55930;47.412;8.790;2022-08-01T10:00:57;94804.09;;;35.37;25.14
68889;BME280;55930;47.412;8.790;2022-08-01T10:03:26;94809.06;;;35.99;25.42
68889;BME280;55930;47.412;8.790;2022-08-01T10:05:52;94804.09;;;36.60;23.54
68889;BME280;55930;47.412;8.790;2022-08-01T10:08:22;94805.81;;;35.14;25.80
68889;BME280;55930;47.412;8.790;2022-08-01T10:11:09;94802.91;;;36.81;25.00
68889;BME280;55930;47.412;8.790;2022-08-01T10:13:36;94806.13;;;36.75;24.64
68889;BME280;55930;47.412;8.790;2022-08-01T10:16:02;94799.88;;;37.08;25.94
68889;BME280;55930;47.412;8.790;2022-08-01T10:18:33;94804.63;;;37.24;23.62
68889;BME280;55930;47.412;8.790;2022-08-01T10:21:01;94791.75;;;37.48;23.76
68889;BME280;55930;47.412;8.790;2022-08-01T10:23:32;94790.00;;;37.03;25.33
68889;BME280;55930;47.412;8.790;2022-08-01T10:26:00;94788.56;;;36.20;28.36
68889;BME280;55930;47.412;8.790;2022-08-01T10:28:26;94777.81;;;35.65;29.57
68889;BME280;55930;47.412;8.790;2022-08-01T10:30:54;94780.88;;;34.14;27.94
68889;BME280;55930;47.412;8.790;2022-08-01T10:33:23;94774.53;;;33.98;29.57
68889;BME280;55930;47.412;8.790;2022-08-01T10:35:50;94769.41;;;33.93;31.01
68889;BME280;55930;47.412;8.790;2022-08-01T10:38:15;94781.78;;;33.16;30.13
68889;BME280;55930;47.412;8.790;2022-08-01T10:40:42;94783.22;;;34.61;27.94
68889;BME280;55930;47.412;8.790;2022-08-01T10:43:09;94768.81;;;33.69;29.93
68889;BME280;55930;47.412;8.790;2022-08-01T10:45:35;94778.81;;;33.12;30.07
68889;BME280;55930;47.412;8.790;2022-08-01T10:53:23;94761.59;;;34.55;26.94
68889;BME280;55930;47.412;8.790;2022-08-01T10:58:23;94758.25;;;34.30;27.90
68889;BME280;55930;47.412;8.790;2022-08-01T11:03:45;94765.38;;;35.05;27.00
68889;BME280;55930;47.412;8.790;2022-08-01T11:11:59;94761.44;;;32.95;30.44
68889;BME280;55930;47.412;8.790;2022-08-01T11:14:27;94761.53;;;32.02;32.57
68889;BME280;55930;47.412;8.790;2022-08-01T11:16:55;94752.41;;;34.37;29.01
68889;BME280;55930;47.412;8.790;2022-08-01T11:19:21;94753.56;;;35.48;25.91
68889;BME280;55930;47.412;8.790;2022-08-01T11:27:28;94744.97;;;36.67;23.99
68889;BME280;55930;47.412;8.790;2022-08-01T11:32:47;94738.28;;;38.60;23.07
68889;BME280;55930;47.412;8.790;2022-08-01T11:35:13;94742.28;;;37.96;23.60
68889;BME280;55930;47.412;8.790;2022-08-01T11:37:39;94736.81;;;38.79;22.15
68889;BME280;55930;47.412;8.790;2022-08-01T11:40:16;94736.16;;;37.99;22.88
68889;BME280;55930;47.412;8.790;2022-08-01T11:42:41;94733.22;;;37.38;22.80
68889;BME280;55930;47.412;8.790;2022-08-01T11:45:07;94733.13;;;38.72;21.37
68889;BME280;55930;47.412;8.790;2022-08-01T11:47:43;94725.81;;;39.02;23.42
68889;BME280;55930;47.412;8.790;2022-08-01T11:53:05;94727.66;;;39.18;21.56
68889;BME280;55930;47.412;8.790;2022-08-01T11:55:31;94726.31;;;39.19;22.48
68889;BME280;55930;47.412;8.790;2022-08-01T11:58:00;94722.22;;;39.93;20.79
68889;BME280;55930;47.412;8.790;2022-08-01T12:00:26;94721.91;;;38.68;22.12
68889;BME280;55930;47.412;8.790;2022-08-01T12:03:01;94717.38;;;39.22;21.51
68889;BME280;55930;47.412;8.790;2022-08-01T12:05:27;94720.09;;;37.76;21.34
68889;BME280;55930;47.412;8.790;2022-08-01T12:07:56;94700.13;;;37.79;21.39
68889;BME280;55930;47.412;8.790;2022-08-01T12:10:25;94711.00;;;37.93;21.13
68889;BME280;55930;47.412;8.790;2022-08-01T12:12:53;94707.88;;;39.53;18.61
68889;BME280;55930;47.412;8.790;2022-08-01T12:15:23;94694.91;;;40.65;19.93
68889;BME280;55930;47.412;8.790;2022-08-01T12:17:59;94698.88;;;37.82;20.86
68889;BME280;55930;47.412;8.790;2022-08-01T12:20:29;94693.91;;;38.40;20.17
68889;BME280;55930;47.412;8.790;2022-08-01T12:22:56;94693.78;;;36.17;22.33
68889;BME280;55930;47.412;8.790;2022-08-01T12:25:22;94686.16;;;35.84;22.44
68889;BME280;55930;47.412;8.790;2022-08-01T12:27:48;94699.44;;;36.03;21.94
68889;BME280;55930;47.412;8.790;2022-08-01T12:30:18;94693.88;;;37.59;21.51
68889;BME280;55930;47.412;8.790;2022-08-01T12:32:47;94684.47;;;36.42;20.77
68889;BME280;55930;47.412;8.790;2022-08-01T12:35:15;94683.88;;;35.79;23.02
68889;BME280;55930;47.412;8.790;2022-08-01T12:37:47;94676.53;;;37.59;20.20
68889;BME280;55930;47.412;8.790;2022-08-01T12:42:47;94678.91;;;39.13;19.04
68889;BME280;55930;47.412;8.790;2022-08-01T12:45:15;94688.50;;;36.57;20.82
68889;BME280;55930;47.412;8.790;2022-08-01T12:47:41;94684.63;;;37.92;20.16
68889;BME280;55930;47.412;8.790;2022-08-01T12:50:14;94684.00;;;37.93;20.24
68889;BME280;55930;47.412;8.790;2022-08-01T12:52:39;94680.50;;;39.67;18.92
68889;BME280;55930;47.412;8.790;2022-08-01T12:57:42;94676.13;;;39.60;19.77
68889;BME280;55930;47.412;8.790;2022-08-01T13:00:20;94670.47;;;37.82;18.19
68889;BME280;55930;47.412;8.790;2022-08-01T13:02:59;94677.81;;;37.95;18.29
68889;BME280;55930;47.412;8.790;2022-08-01T13:05:26;94673.78;;;36.86;18.83
68889;BME280;55930;47.412;8.790;2022-08-01T13:07:52;94666.25;;;38.20;18.94
68889;BME280;55930;47.412;8.790;2022-08-01T13:10:29;94659.34;;;38.63;18.59
68889;BME280;55930;47.412;8.790;2022-08-01T13:12:57;94656.53;;;39.07;17.05
68889;BME280;55930;47.412;8.790;2022-08-01T13:17:50;94653.28;;;39.14;17.59
68889;BME280;55930;47.412;8.790;2022-08-01T13:20:32;94654.88;;;38.54;16.77
68889;BME280;55930;47.412;8.790;2022-08-01T13:23:17;94649.47;;;40.57;18.35
68889;BME280;55930;47.412;8.790;2022-08-01T13:25:55;94647.25;;;39.95;16.76
68889;BME280;55930;47.412;8.790;2022-08-01T13:28:25;94642.72;;;41.25;16.33
68889;BME280;55930;47.412;8.790;2022-08-01T13:30:59;94650.28;;;37.99;16.83
68889;BME280;55930;47.412;8.790;2022-08-01T13:33:27;94643.84;;;38.56;15.94
68889;BME280;55930;47.412;8.790;2022-08-01T13:35:54;94646.53;;;39.95;16.55
68889;BME280;55930;47.412;8.790;2022-08-01T13:38:22;94642.53;;;40.28;17.46
68889;BME280;55930;47.412;8.790;2022-08-01T13:41:07;94640.28;;;39.45;16.73
68889;BME280;55930;47.412;8.790;2022-08-01T13:43:32;94639.72;;;40.00;16.05
68889;BME280;55930;47.412;8.790;2022-08-01T13:45:58;94639.19;;;38.84;16.66
68889;BME280;55930;47.412;8.790;2022-08-01T13:48:24;94637.63;;;39.01;16.87
68889;BME280;55930;47.412;8.790;2022-08-01T13:50:49;94629.63;;;37.82;19.10
68889;BME280;55930;47.412;8.790;2022-08-01T13:53:15;94642.19;;;37.66;17.35